sensor_id;sensor_type;location;lat;lon;timestamp;P1;durP1;ratioP1;P2;durP2;ratioP2
13014;SDS011;6573;57.696;11.950;2023-07-09T00:01:48;6.30;;;3.90;;
13014;SDS011;6573;57.696;11.950;2023-07-09T00:04:16;7.67;;;3.43;;
13014;SDS011;6573;57.696;11.950;2023-07-09T00:06:49;7.10;;;3.80;;
13014;SDS011;6573;57.696;11.950;2023-07-09T00:09:18;6.17;;;3.50;;
13014;SDS011;6573;57.696;11.950;2023-07-09T00:11:47;10.17;;;3.57;;
13014;SDS011;6573;57.696;11.950;2023-07-09T00:14:18;7.57;;;3.60;;
13014;SDS011;6573;57.696;11.950;2023-07-09T00:16:47;7.27;;;3.93;;
13014;SDS011;6573;57.696;11.950;2023-07-09T00:19:17;6.60;;;3.63;;
13014;SDS011;6573;57.696;11.950;2023-07-09T00:21:48;8.43;;;3.97;;
13014;SDS011;6573;57.696;11.950;2023-07-09T00:24:20;8.27;;;3.50;;
13014;SDS011;6573;57.696;11.950;2023-07-09T00:26:48;6.57;;;3.60;;
13014;SDS011;6573;57.696;11.950;2023-07-09T00:29:18;5.37;;;3.40;;
13014;SDS011;6573;57.696;11.950;2023-07-09T00:31:49;11.00;;;3.63;;
13014;SDS011;6573;57.696;11.950;2023-07-09T00:34:18;6.10;;;3.70;;
13014;SDS011;6573;57.696;11.950;2023-07-09T00:36:48;7.70;;;3.80;;
13014;SDS011;6573;57.696;11.950;2023-07-09T00:39:17;7.87;;;3.57;;
13014;SDS011;6573;57.696;11.950;2023-07-09T00:41:47;5.63;;;4.53;;
13014;SDS011;6573;57.696;11.950;2023-07-09T00:44:23;6.43;;;4.50;;
13014;SDS011;6573;57.696;11.950;2023-07-09T00:49:46;7.10;;;3.57;;
13014;SDS011;6573;57.696;11.950;2023-07-09T00:52:24;6.97;;;4.03;;
13014;SDS011;6573;57.696;11.950;2023-07-09T00:55:00;6.97;;;4.10;;
13014;SDS011;6573;57.696;11.950;2023-07-09T00:57:35;8.17;;;4.20;;
13014;SDS011;6573;57.696;11.950;2023-07-09T01:00:09;9.67;;;4.33;;
13014;SDS011;6573;57.696;11.950;2023-07-09T01:02:44;6.43;;;3.57;;
13014;SDS011;6573;57.696;11.950;2023-07-09T01:05:17;9.60;;;4.00;;
13014;SDS011;6573;57.696;11.950;2023-07-09T01:07:46;11.10;;;4.50;;
13014;SDS011;6573;57.696;11.950;2023-07-09T01:10:15;6.57;;;3.50;;
13014;SDS011;6573;57.696;11.950;2023-07-09T01:12:45;7.33;;;3.80;;
13014;SDS011;6573;57.696;11.950;2023-07-09T01:15:17;11.83;;;4.23;;
13014;SDS011;6573;57.696;11.950;2023-07-09T01:17:48;7.67;;;4.20;;
13014;SDS011;6573;57.696;11.950;2023-07-09T01:20:20;7.60;;;4.87;;
13014;SDS011;6573;57.696;11.950;2023-07-09T01:22:51;10.40;;;4.27;;
13014;SDS011;6573;57.696;11.950;2023-07-09T01:25:23;7.70;;;3.83;;
13014;SDS011;6573;57.696;11.950;2023-07-09T01:27:52;5.60;;;4.10;;
13014;SDS011;6573;57.696;11.950;2023-07-09T01:30:24;5.37;;;3.90;;
13014;SDS011;6573;57.696;11.950;2023-07-09T01:32:58;5.90;;;4.30;;
13014;SDS011;6573;57.696;11.950;2023-07-09T01:35:31;8.13;;;4.77;;
13014;SDS011;6573;57.696;11.950;2023-07-09T01:38:04;7.00;;;4.80;;
13014;SDS011;6573;57.696;11.950;2023-07-09T01:40:36;11.77;;;4.47;;
13014;SDS011;6573;57.696;11.950;2023-07-09T01:43:05;8.83;;;3.80;;
13014;SDS011;6573;57.696;11.950;2023-07-09T01:45:34;6.20;;;4.00;;
13014;SDS011;6573;57.696;11.950;2023-07-09T01:48:03;6.37;;;4.23;;
13014;SDS011;6573;57.696;11.950;2023-07-09T01:50:36;6.23;;;3.97;;
13014;SDS011;6573;57.696;11.950;2023-07-09T01:53:09;8.13;;;4.17;;
13014;SDS011;6573;57.696;11.950;2023-07-09T01:55:38;10.40;;;4.23;;
13014;SDS011;6573;57.696;11.950;2023-07-09T01:58:06;6.50;;;3.80;;
13014;SDS011;6573;57.696;11.950;2023-07-09T02:00:35;6.93;;;5.00;;
13014;SDS011;6573;57.696;11.950;2023-07-09T02:03:04;9.27;;;4.30;;
13014;SDS011;6573;57.696;11.950;2023-07-09T02:05:32;7.10;;;4.77;;
13014;SDS011;6573;57.696;11.950;2023-07-09T02:08:03;8.40;;;4.90;;
13014;SDS011;6573;57.696;11.950;2023-07-09T02:10:36;7.17;;;4.70;;
13014;SDS011;6573;57.696;11.950;2023-07-09T02:13:04;7.60;;;4.30;;
13014;SDS011;6573;57.696;11.950;2023-07-09T02:15:32;6.63;;;4.50;;
13014;SDS011;6573;57.696;11.950;2023-07-09T02:18:00;8.43;;;4.80;;
13014;SDS011;6573;57.696;11.950;2023-07-09T02:20:31;8.73;;;5.17;;
13014;SDS011;6573;57.696;11.950;2023-07-09T02:23:01;8.67;;;5.00;;
13014;SDS011;6573;57.696;11.950;2023-07-09T02:25:30;9.57;;;4.53;;
13014;SDS011;6573;57.696;11.950;2023-07-09T02:28:00;7.17;;;4.13;;
13014;SDS011;6573;57.696;11.950;2023-07-09T02:30:28;7.50;;;4.23;;
13014;SDS011;6573;57.696;11.950;2023-07-09T02:32:56;7.93;;;4.27;;
13014;SDS011;6573;57.696;11.950;2023-07-09T02:35:28;7.13;;;4.33;;
13014;SDS011;6573;57.696;11.950;2023-07-09T02:37:56;8.17;;;4.13;;
13014;SDS011;6573;57.696;11.950;2023-07-09T02:40:24;6.73;;;4.23;;
13014;SDS011;6573;57.696;11.950;2023-07-09T02:42:52;9.63;;;4.73;;
13014;SDS011;6573;57.696;11.950;2023-07-09T02:45:25;7.80;;;5.23;;
13014;SDS011;6573;57.696;11.950;2023-07-09T02:47:53;10.67;;;5.90;;
13014;SDS011;6573;57.696;11.950;2023-07-09T02:50:22;9.20;;;5.70;;
13014;SDS011;6573;57.696;11.950;2023-07-09T02:52:50;6.87;;;5.07;;
13014;SDS011;6573;57.696;11.950;2023-07-09T02:55:18;11.50;;;5.20;;
13014;SDS011;6573;57.696;11.950;2023-07-09T02:57:47;9.33;;;6.10;;
13014;SDS011;6573;57.696;11.950;2023-07-09T03:00:15;13.57;;;6.67;;
13014;SDS011;6573;57.696;11.950;2023-07-09T03:02:45;13.73;;;7.40;;
13014;SDS011;6573;57.696;11.950;2023-07-09T03:05:14;9.77;;;6.33;;
13014;SDS011;6573;57.696;11.950;2023-07-09T03:07:43;13.60;;;7.23;;
13014;SDS011;6573;57.696;11.950;2023-07-09T03:10:11;8.77;;;6.10;;
13014;SDS011;6573;57.696;11.950;2023-07-09T03:12:39;11.07;;;6.40;;
13014;SDS011;6573;57.696;11.950;2023-07-09T03:15:08;8.60;;;5.80;;
13014;SDS011;6573;57.696;11.950;2023-07-09T03:17:36;9.73;;;5.87;;
13014;SDS011;6573;57.696;11.950;2023-07-09T03:20:06;8.50;;;5.47;;
13014;SDS011;6573;57.696;11.950;2023-07-09T03:22:36;10.03;;;5.67;;
13014;SDS011;6573;57.696;11.950;2023-07-09T03:25:05;9.83;;;5.50;;
13014;SDS011;6573;57.696;11.950;2023-07-09T03:27:33;7.67;;;6.17;;
13014;SDS011;6573;57.696;11.950;2023-07-09T03:30:02;8.53;;;5.23;;
13014;SDS011;6573;57.696;11.950;2023-07-09T03:32:30;9.07;;;4.90;;
13014;SDS011;6573;57.696;11.950;2023-07-09T03:34:59;9.43;;;5.93;;
13014;SDS011;6573;57.696;11.950;2023-07-09T03:37:29;13.70;;;5.90;;
13014;SDS011;6573;57.696;11.950;2023-07-09T03:39:57;7.23;;;5.67;;
13014;SDS011;6573;57.696;11.950;2023-07-09T03:42:27;9.00;;;5.10;;
13014;SDS011;6573;57.696;11.950;2023-07-09T03:44:56;8.77;;;5.00;;
13014;SDS011;6573;57.696;11.950;2023-07-09T03:47:24;13.13;;;4.80;;
13014;SDS011;6573;57.696;11.950;2023-07-09T03:49:52;10.93;;;4.43;;
13014;SDS011;6573;57.696;11.950;2023-07-09T03:52:21;9.63;;;5.50;;
13014;SDS011;6573;57.696;11.950;2023-07-09T03:54:50;9.83;;;5.30;;
13014;SDS011;6573;57.696;11.950;2023-07-09T03:57:18;6.53;;;5.23;;
13014;SDS011;6573;57.696;11.950;2023-07-09T03:59:47;9.63;;;5.63;;
13014;SDS011;6573;57.696;11.950;2023-07-09T04:02:15;10.50;;;5.30;;
13014;SDS011;6573;57.696;11.950;2023-07-09T04:04:43;11.17;;;5.20;;
13014;SDS011;6573;57.696;11.950;2023-07-09T04:07:12;8.00;;;5.10;;
13014;SDS011;6573;57.696;11.950;2023-07-09T04:09:42;8.80;;;5.10;;
13014;SDS011;6573;57.696;11.950;2023-07-09T04:12:11;7.13;;;5.03;;
13014;SDS011;6573;57.696;11.950;2023-07-09T04:14:40;9.23;;;5.53;;
13014;SDS011;6573;57.696;11.950;2023-07-09T04:17:08;12.20;;;4.60;;
13014;SDS011;6573;57.696;11.950;2023-07-09T04:19:36;6.60;;;4.60;;
13014;SDS011;6573;57.696;11.950;2023-07-09T04:22:05;7.30;;;4.70;;
13014;SDS011;6573;57.696;11.950;2023-07-09T04:24:33;6.90;;;4.50;;
13014;SDS011;6573;57.696;11.950;2023-07-09T04:27:04;7.50;;;4.83;;
13014;SDS011;6573;57.696;11.950;2023-07-09T04:29:37;13.97;;;4.90;;
13014;SDS011;6573;57.696;11.950;2023-07-09T04:32:06;7.23;;;5.10;;
13014;SDS011;6573;57.696;11.950;2023-07-09T04:34:36;6.50;;;4.20;;
13014;SDS011;6573;57.696;11.950;2023-07-09T04:37:05;8.53;;;5.47;;
13014;SDS011;6573;57.696;11.950;2023-07-09T04:39:34;7.40;;;5.07;;
13014;SDS011;6573;57.696;11.950;2023-07-09T04:42:05;7.90;;;5.20;;
13014;SDS011;6573;57.696;11.950;2023-07-09T04:44:38;8.57;;;5.10;;
13014;SDS011;6573;57.696;11.950;2023-07-09T04:47:07;4.63;;;4.03;;
13014;SDS011;6573;57.696;11.950;2023-07-09T04:49:35;8.70;;;5.10;;
13014;SDS011;6573;57.696;11.950;2023-07-09T04:52:05;6.80;;;4.30;;
13014;SDS011;6573;57.696;11.950;2023-07-09T04:54:39;5.23;;;4.40;;
13014;SDS011;6573;57.696;11.950;2023-07-09T04:57:10;7.53;;;4.60;;
13014;SDS011;6573;57.696;11.950;2023-07-09T04:59:40;8.57;;;4.77;;
13014;SDS011;6573;57.696;11.950;2023-07-09T05:02:09;6.87;;;5.30;;
13014;SDS011;6573;57.696;11.950;2023-07-09T05:04:37;6.10;;;5.50;;
13014;SDS011;6573;57.696;11.950;2023-07-09T05:07:06;10.60;;;5.80;;
13014;SDS011;6573;57.696;11.950;2023-07-09T05:09:34;9.40;;;5.43;;
13014;SDS011;6573;57.696;11.950;2023-07-09T05:12:03;9.43;;;4.97;;
13014;SDS011;6573;57.696;11.950;2023-07-09T05:14:32;8.17;;;4.60;;
13014;SDS011;6573;57.696;11.950;2023-07-09T05:17:05;8.20;;;4.90;;
13014;SDS011;6573;57.696;11.950;2023-07-09T05:19:34;9.57;;;4.50;;
13014;SDS011;6573;57.696;11.950;2023-07-09T05:22:06;5.30;;;4.73;;
13014;SDS011;6573;57.696;11.950;2023-07-09T05:24:35;9.87;;;5.53;;
13014;SDS011;6573;57.696;11.950;2023-07-09T05:27:03;7.30;;;4.60;;
13014;SDS011;6573;57.696;11.950;2023-07-09T05:29:32;8.33;;;5.10;;
13014;SDS011;6573;57.696;11.950;2023-07-09T05:32:01;6.50;;;4.93;;
13014;SDS011;6573;57.696;11.950;2023-07-09T05:34:31;8.07;;;4.90;;
13014;SDS011;6573;57.696;11.950;2023-07-09T05:36:59;6.57;;;4.70;;
13014;SDS011;6573;57.696;11.950;2023-07-09T05:39:27;6.87;;;4.67;;
13014;SDS011;6573;57.696;11.950;2023-07-09T05:41:56;7.17;;;4.70;;
13014;SDS011;6573;57.696;11.950;2023-07-09T05:44:24;8.60;;;5.10;;
13014;SDS011;6573;57.696;11.950;2023-07-09T05:46:53;9.30;;;4.13;;
13014;SDS011;6573;57.696;11.950;2023-07-09T05:49:21;11.27;;;4.30;;
13014;SDS011;6573;57.696;11.950;2023-07-09T05:51:51;9.13;;;4.03;;
13014;SDS011;6573;57.696;11.950;2023-07-09T05:54:19;8.57;;;4.47;;
13014;SDS011;6573;57.696;11.950;2023-07-09T05:56:47;6.33;;;4.00;;
13014;SDS011;6573;57.696;11.950;2023-07-09T05:59:16;5.63;;;4.00;;
13014;SDS011;6573;57.696;11.950;2023-07-09T06:01:44;8.37;;;4.60;;
13014;SDS011;6573;57.696;11.950;2023-07-09T06:04:15;9.93;;;4.70;;
13014;SDS011;6573;57.696;11.950;2023-07-09T06:06:44;5.57;;;4.30;;
13014;SDS011;6573;57.696;11.950;2023-07-09T06:09:14;8.23;;;4.23;;
13014;SDS011;6573;57.696;11.950;2023-07-09T06:11:49;5.60;;;3.77;;
13014;SDS011;6573;57.696;11.950;2023-07-09T06:14:17;5.70;;;3.93;;
13014;SDS011;6573;57.696;11.950;2023-07-09T06:16:46;7.27;;;3.97;;
13014;SDS011;6573;57.696;11.950;2023-07-09T06:19:15;6.83;;;3.80;;
13014;SDS011;6573;57.696;11.950;2023-07-09T06:21:43;6.83;;;4.10;;
13014;SDS011;6573;57.696;11.950;2023-07-09T06:24:12;7.63;;;4.00;;
13014;SDS011;6573;57.696;11.950;2023-07-09T06:26:42;8.00;;;3.70;;
13014;SDS011;6573;57.696;11.950;2023-07-09T06:29:11;7.40;;;4.20;;
13014;SDS011;6573;57.696;11.950;2023-07-09T06:31:39;6.07;;;3.40;;
13014;SDS011;6573;57.696;11.950;2023-07-09T06:34:09;5.83;;;3.47;;
13014;SDS011;6573;57.696;11.950;2023-07-09T06:36:38;6.27;;;3.77;;
13014;SDS011;6573;57.696;11.950;2023-07-09T06:39:11;7.47;;;3.47;;
13014;SDS011;6573;57.696;11.950;2023-07-09T06:41:40;7.27;;;3.53;;
13014;SDS011;6573;57.696;11.950;2023-07-09T06:44:09;7.67;;;3.40;;
13014;SDS011;6573;57.696;11.950;2023-07-09T06:46:37;4.70;;;3.30;;
13014;SDS011;6573;57.696;11.950;2023-07-09T06:49:06;11.60;;;4.03;;
13014;SDS011;6573;57.696;11.950;2023-07-09T06:51:34;5.60;;;3.00;;
13014;SDS011;6573;57.696;11.950;2023-07-09T06:54:02;7.90;;;3.13;;
13014;SDS011;6573;57.696;11.950;2023-07-09T06:56:31;5.87;;;3.27;;
13014;SDS011;6573;57.696;11.950;2023-07-09T06:59:01;6.60;;;3.13;;
13014;SDS011;6573;57.696;11.950;2023-07-09T07:01:29;7.67;;;3.30;;
13014;SDS011;6573;57.696;11.950;2023-07-09T07:03:58;7.93;;;2.97;;
13014;SDS011;6573;57.696;11.950;2023-07-09T07:06:27;5.37;;;3.03;;
13014;SDS011;6573;57.696;11.950;2023-07-09T07:08:55;6.53;;;2.80;;
13014;SDS011;6573;57.696;11.950;2023-07-09T07:11:23;6.43;;;2.60;;
13014;SDS011;6573;57.696;11.950;2023-07-09T07:13:56;3.20;;;2.53;;
13014;SDS011;6573;57.696;11.950;2023-07-09T07:16:26;7.67;;;3.00;;
13014;SDS011;6573;57.696;11.950;2023-07-09T07:18:54;5.10;;;2.90;;
13014;SDS011;6573;57.696;11.950;2023-07-09T07:21:22;5.53;;;2.90;;
13014;SDS011;6573;57.696;11.950;2023-07-09T07:23:51;5.93;;;2.63;;
13014;SDS011;6573;57.696;11.950;2023-07-09T07:26:19;4.90;;;2.43;;
13014;SDS011;6573;57.696;11.950;2023-07-09T07:28:48;5.73;;;2.60;;
13014;SDS011;6573;57.696;11.950;2023-07-09T07:31:17;6.40;;;3.00;;
13014;SDS011;6573;57.696;11.950;2023-07-09T07:33:46;6.03;;;2.80;;
13014;SDS011;6573;57.696;11.950;2023-07-09T07:36:14;4.30;;;2.43;;
13014;SDS011;6573;57.696;11.950;2023-07-09T07:38:46;4.73;;;2.33;;
13014;SDS011;6573;57.696;11.950;2023-07-09T07:41:14;4.63;;;2.60;;
13014;SDS011;6573;57.696;11.950;2023-07-09T07:43:42;4.67;;;2.60;;
13014;SDS011;6573;57.696;11.950;2023-07-09T07:46:10;6.07;;;2.57;;
13014;SDS011;6573;57.696;11.950;2023-07-09T07:48:39;4.73;;;2.80;;
13014;SDS011;6573;57.696;11.950;2023-07-09T07:51:08;5.37;;;2.70;;
13014;SDS011;6573;57.696;11.950;2023-07-09T07:53:37;2.20;;;2.00;;
13014;SDS011;6573;57.696;11.950;2023-07-09T07:56:05;2.90;;;2.10;;
13014;SDS011;6573;57.696;11.950;2023-07-09T07:58:33;3.07;;;2.03;;
13014;SDS011;6573;57.696;11.950;2023-07-09T08:01:02;3.40;;;2.07;;
13014;SDS011;6573;57.696;11.950;2023-07-09T08:03:34;3.60;;;2.20;;
13014;SDS011;6573;57.696;11.950;2023-07-09T08:06:02;2.00;;;1.80;;
13014;SDS011;6573;57.696;11.950;2023-07-09T08:08:35;2.10;;;1.90;;
13014;SDS011;6573;57.696;11.950;2023-07-09T08:11:05;2.53;;;2.03;;
13014;SDS011;6573;57.696;11.950;2023-07-09T08:13:34;4.17;;;2.13;;
13014;SDS011;6573;57.696;11.950;2023-07-09T08:16:06;3.57;;;2.17;;
13014;SDS011;6573;57.696;11.950;2023-07-09T08:18:37;4.33;;;1.80;;
13014;SDS011;6573;57.696;11.950;2023-07-09T08:21:06;2.90;;;1.80;;
13014;SDS011;6573;57.696;11.950;2023-07-09T08:23:37;1.67;;;1.57;;
13014;SDS011;6573;57.696;11.950;2023-07-09T08:26:05;3.03;;;1.87;;
13014;SDS011;6573;57.696;11.950;2023-07-09T08:28:34;3.50;;;2.00;;
13014;SDS011;6573;57.696;11.950;2023-07-09T08:31:03;2.63;;;1.70;;
13014;SDS011;6573;57.696;11.950;2023-07-09T08:33:32;2.60;;;1.60;;
13014;SDS011;6573;57.696;11.950;2023-07-09T08:36:00;2.83;;;2.10;;
13014;SDS011;6573;57.696;11.950;2023-07-09T08:38:29;1.77;;;1.63;;
13014;SDS011;6573;57.696;11.950;2023-07-09T08:40:59;2.93;;;1.77;;
13014;SDS011;6573;57.696;11.950;2023-07-09T08:43:32;2.33;;;1.63;;
13014;SDS011;6573;57.696;11.950;2023-07-09T08:46:07;1.93;;;1.70;;
13014;SDS011;6573;57.696;11.950;2023-07-09T08:48:44;5.43;;;1.70;;
13014;SDS011;6573;57.696;11.950;2023-07-09T08:51:16;2.20;;;1.80;;
13014;SDS011;6573;57.696;11.950;2023-07-09T08:53:50;3.90;;;1.70;;
13014;SDS011;6573;57.696;11.950;2023-07-09T08:56:24;2.60;;;1.90;;
13014;SDS011;6573;57.696;11.950;2023-07-09T08:58:55;6.20;;;2.07;;
13014;SDS011;6573;57.696;11.950;2023-07-09T09:01:28;3.40;;;2.17;;
13014;SDS011;6573;57.696;11.950;2023-07-09T09:04:02;4.63;;;2.13;;
13014;SDS011;6573;57.696;11.950;2023-07-09T09:06:41;3.97;;;2.47;;
13014;SDS011;6573;57.696;11.950;2023-07-09T09:09:15;4.07;;;2.73;;
13014;SDS011;6573;57.696;11.950;2023-07-09T09:11:57;3.77;;;2.30;;
13014;SDS011;6573;57.696;11.950;2023-07-09T09:14:31;4.40;;;2.80;;
13014;SDS011;6573;57.696;11.950;2023-07-09T09:17:04;6.23;;;2.60;;
13014;SDS011;6573;57.696;11.950;2023-07-09T09:19:43;6.10;;;3.03;;
13014;SDS011;6573;57.696;11.950;2023-07-09T09:22:17;5.00;;;3.00;;
13014;SDS011;6573;57.696;11.950;2023-07-09T09:24:56;4.60;;;2.77;;
13014;SDS011;6573;57.696;11.950;2023-07-09T09:27:31;5.70;;;2.97;;
13014;SDS011;6573;57.696;11.950;2023-07-09T09:30:00;7.73;;;2.60;;
13014;SDS011;6573;57.696;11.950;2023-07-09T09:32:41;4.60;;;2.60;;
13014;SDS011;6573;57.696;11.950;2023-07-09T09:35:11;4.73;;;2.80;;
13014;SDS011;6573;57.696;11.950;2023-07-09T09:37:43;4.23;;;2.40;;
13014;SDS011;6573;57.696;11.950;2023-07-09T09:40:17;4.50;;;2.37;;
13014;SDS011;6573;57.696;11.950;2023-07-09T09:42:50;3.43;;;2.43;;
13014;SDS011;6573;57.696;11.950;2023-07-09T09:45:21;3.87;;;2.30;;
13014;SDS011;6573;57.696;11.950;2023-07-09T09:47:57;4.93;;;2.50;;
13014;SDS011;6573;57.696;11.950;2023-07-09T09:50:30;5.27;;;2.57;;
13014;SDS011;6573;57.696;11.950;2023-07-09T09:53:00;4.63;;;3.20;;
13014;SDS011;6573;57.696;11.950;2023-07-09T09:55:29;4.10;;;2.47;;
13014;SDS011;6573;57.696;11.950;2023-07-09T09:58:01;5.23;;;2.97;;
13014;SDS011;6573;57.696;11.950;2023-07-09T10:00:32;5.20;;;2.70;;
13014;SDS011;6573;57.696;11.950;2023-07-09T10:03:01;5.47;;;2.67;;
13014;SDS011;6573;57.696;11.950;2023-07-09T10:05:37;5.87;;;2.73;;
13014;SDS011;6573;57.696;11.950;2023-07-09T10:08:12;4.67;;;2.83;;
13014;SDS011;6573;57.696;11.950;2023-07-09T10:10:49;6.90;;;2.60;;
13014;SDS011;6573;57.696;11.950;2023-07-09T10:13:24;6.53;;;3.00;;
13014;SDS011;6573;57.696;11.950;2023-07-09T10:16:00;4.03;;;2.47;;
13014;SDS011;6573;57.696;11.950;2023-07-09T10:18:36;6.40;;;2.57;;
13014;SDS011;6573;57.696;11.950;2023-07-09T10:21:14;5.87;;;2.87;;
13014;SDS011;6573;57.696;11.950;2023-07-09T10:23:51;4.40;;;2.37;;
13014;SDS011;6573;57.696;11.950;2023-07-09T10:26:32;3.47;;;2.53;;
13014;SDS011;6573;57.696;11.950;2023-07-09T10:32:28;5.10;;;2.50;;
13014;SDS011;6573;57.696;11.950;2023-07-09T10:35:09;4.90;;;2.30;;
13014;SDS011;6573;57.696;11.950;2023-07-09T10:37:48;3.20;;;2.20;;
13014;SDS011;6573;57.696;11.950;2023-07-09T10:40:36;2.70;;;2.10;;
13014;SDS011;6573;57.696;11.950;2023-07-09T10:43:10;3.23;;;2.27;;
13014;SDS011;6573;57.696;11.950;2023-07-09T10:45:51;3.30;;;2.10;;
13014;SDS011;6573;57.696;11.950;2023-07-09T10:48:29;3.70;;;2.30;;
13014;SDS011;6573;57.696;11.950;2023-07-09T10:51:01;4.87;;;2.00;;
13014;SDS011;6573;57.696;11.950;2023-07-09T10:53:33;2.73;;;2.00;;
13014;SDS011;6573;57.696;11.950;2023-07-09T10:56:09;2.43;;;1.90;;
13014;SDS011;6573;57.696;11.950;2023-07-09T10:58:41;3.30;;;2.00;;
13014;SDS011;6573;57.696;11.950;2023-07-09T11:01:21;3.23;;;2.20;;
13014;SDS011;6573;57.696;11.950;2023-07-09T11:03:59;3.03;;;1.77;;
13014;SDS011;6573;57.696;11.950;2023-07-09T11:06:32;4.83;;;3.60;;
13014;SDS011;6573;57.696;11.950;2023-07-09T11:09:10;2.60;;;2.07;;
13014;SDS011;6573;57.696;11.950;2023-07-09T11:11:43;2.63;;;1.83;;
13014;SDS011;6573;57.696;11.950;2023-07-09T11:14:19;4.27;;;1.90;;
13014;SDS011;6573;57.696;11.950;2023-07-09T11:16:54;3.90;;;2.10;;
13014;SDS011;6573;57.696;11.950;2023-07-09T11:19:24;2.53;;;1.97;;
13014;SDS011;6573;57.696;11.950;2023-07-09T11:21:59;3.60;;;2.30;;
13014;SDS011;6573;57.696;11.950;2023-07-09T11:24:35;2.20;;;2.00;;
13014;SDS011;6573;57.696;11.950;2023-07-09T11:27:18;3.83;;;2.20;;
13014;SDS011;6573;57.696;11.950;2023-07-09T11:29:49;3.23;;;1.90;;
13014;SDS011;6573;57.696;11.950;2023-07-09T11:32:27;4.83;;;2.30;;
13014;SDS011;6573;57.696;11.950;2023-07-09T11:35:05;3.00;;;1.87;;
13014;SDS011;6573;57.696;11.950;2023-07-09T11:37:43;2.97;;;2.20;;
13014;SDS011;6573;57.696;11.950;2023-07-09T11:40:15;4.43;;;2.03;;
13014;SDS011;6573;57.696;11.950;2023-07-09T11:42:50;2.60;;;2.00;;
13014;SDS011;6573;57.696;11.950;2023-07-09T11:45:20;3.50;;;2.30;;
13014;SDS011;6573;57.696;11.950;2023-07-09T11:47:55;5.23;;;2.10;;
13014;SDS011;6573;57.696;11.950;2023-07-09T11:50:32;2.87;;;2.27;;
13014;SDS011;6573;57.696;11.950;2023-07-09T11:53:13;2.50;;;2.23;;
13014;SDS011;6573;57.696;11.950;2023-07-09T11:55:53;2.77;;;1.93;;
13014;SDS011;6573;57.696;11.950;2023-07-09T11:58:21;3.83;;;2.43;;
13014;SDS011;6573;57.696;11.950;2023-07-09T12:00:50;4.03;;;1.90;;
13014;SDS011;6573;57.696;11.950;2023-07-09T12:03:24;2.57;;;2.10;;
13014;SDS011;6573;57.696;11.950;2023-07-09T12:05:57;4.50;;;2.50;;
13014;SDS011;6573;57.696;11.950;2023-07-09T12:08:32;2.50;;;2.27;;
13014;SDS011;6573;57.696;11.950;2023-07-09T12:11:02;3.70;;;2.30;;
13014;SDS011;6573;57.696;11.950;2023-07-09T12:13:36;4.90;;;2.30;;
13014;SDS011;6573;57.696;11.950;2023-07-09T12:16:17;2.83;;;2.57;;
13014;SDS011;6573;57.696;11.950;2023-07-09T12:18:50;3.03;;;2.33;;
13014;SDS011;6573;57.696;11.950;2023-07-09T12:21:18;3.70;;;2.50;;
13014;SDS011;6573;57.696;11.950;2023-07-09T12:23:47;3.40;;;2.20;;
13014;SDS011;6573;57.696;11.950;2023-07-09T12:26:17;4.27;;;2.40;;
13014;SDS011;6573;57.696;11.950;2023-07-09T12:28:50;3.53;;;2.10;;
13014;SDS011;6573;57.696;11.950;2023-07-09T12:31:21;3.03;;;2.10;;
13014;SDS011;6573;57.696;11.950;2023-07-09T12:33:56;4.43;;;2.37;;
13014;SDS011;6573;57.696;11.950;2023-07-09T12:36:26;3.40;;;2.30;;
13014;SDS011;6573;57.696;11.950;2023-07-09T12:38:56;4.20;;;2.60;;
13014;SDS011;6573;57.696;11.950;2023-07-09T12:41:32;2.93;;;2.23;;
13014;SDS011;6573;57.696;11.950;2023-07-09T12:44:04;3.07;;;2.10;;
13014;SDS011;6573;57.696;11.950;2023-07-09T12:46:33;2.60;;;2.10;;
13014;SDS011;6573;57.696;11.950;2023-07-09T12:49:04;5.00;;;2.20;;
13014;SDS011;6573;57.696;11.950;2023-07-09T12:51:33;3.20;;;1.90;;
13014;SDS011;6573;57.696;11.950;2023-07-09T12:54:11;3.37;;;2.37;;
13014;SDS011;6573;57.696;11.950;2023-07-09T12:56:44;3.10;;;2.17;;
13014;SDS011;6573;57.696;11.950;2023-07-09T12:59:17;2.73;;;1.93;;
13014;SDS011;6573;57.696;11.950;2023-07-09T13:01:51;2.50;;;1.90;;
13014;SDS011;6573;57.696;11.950;2023-07-09T13:04:29;3.90;;;1.80;;
13014;SDS011;6573;57.696;11.950;2023-07-09T13:06:58;3.10;;;2.20;;
13014;SDS011;6573;57.696;11.950;2023-07-09T13:09:27;4.63;;;1.97;;
13014;SDS011;6573;57.696;11.950;2023-07-09T13:11:56;2.40;;;1.83;;
13014;SDS011;6573;57.696;11.950;2023-07-09T13:14:25;2.40;;;1.90;;
13014;SDS011;6573;57.696;11.950;2023-07-09T13:17:02;3.33;;;2.10;;
13014;SDS011;6573;57.696;11.950;2023-07-09T13:19:34;2.77;;;2.07;;
13014;SDS011;6573;57.696;11.950;2023-07-09T13:22:04;2.90;;;1.90;;
13014;SDS011;6573;57.696;11.950;2023-07-09T13:24:32;2.30;;;1.80;;
13014;SDS011;6573;57.696;11.950;2023-07-09T13:27:03;2.30;;;2.00;;
13014;SDS011;6573;57.696;11.950;2023-07-09T13:29:36;5.30;;;2.10;;
13014;SDS011;6573;57.696;11.950;2023-07-09T13:32:07;3.63;;;1.80;;
13014;SDS011;6573;57.696;11.950;2023-07-09T13:34:38;3.10;;;2.00;;
13014;SDS011;6573;57.696;11.950;2023-07-09T13:37:08;3.77;;;1.90;;
13014;SDS011;6573;57.696;11.950;2023-07-09T13:39:39;2.80;;;1.90;;
13014;SDS011;6573;57.696;11.950;2023-07-09T13:42:10;2.47;;;1.90;;
13014;SDS011;6573;57.696;11.950;2023-07-09T13:44:41;3.57;;;1.97;;
13014;SDS011;6573;57.696;11.950;2023-07-09T13:47:11;2.30;;;1.80;;
13014;SDS011;6573;57.696;11.950;2023-07-09T13:49:44;5.33;;;1.87;;
13014;SDS011;6573;57.696;11.950;2023-07-09T13:52:15;2.90;;;1.90;;
13014;SDS011;6573;57.696;11.950;2023-07-09T13:54:46;4.00;;;1.87;;
13014;SDS011;6573;57.696;11.950;2023-07-09T13:57:16;2.23;;;1.90;;
13014;SDS011;6573;57.696;11.950;2023-07-09T13:59:46;2.47;;;1.90;;
13014;SDS011;6573;57.696;11.950;2023-07-09T14:02:17;2.60;;;1.70;;
13014;SDS011;6573;57.696;11.950;2023-07-09T14:04:52;3.37;;;2.53;;
13014;SDS011;6573;57.696;11.950;2023-07-09T14:07:24;5.33;;;2.37;;
13014;SDS011;6573;57.696;11.950;2023-07-09T14:09:54;3.53;;;2.00;;
13014;SDS011;6573;57.696;11.950;2023-07-09T14:12:24;3.10;;;2.20;;
13014;SDS011;6573;57.696;11.950;2023-07-09T14:14:53;2.90;;;2.20;;
13014;SDS011;6573;57.696;11.950;2023-07-09T14:17:25;3.17;;;2.30;;
13014;SDS011;6573;57.696;11.950;2023-07-09T14:19:56;3.23;;;2.37;;
13014;SDS011;6573;57.696;11.950;2023-07-09T14:22:29;4.27;;;2.43;;
13014;SDS011;6573;57.696;11.950;2023-07-09T14:25:00;3.20;;;1.83;;
13014;SDS011;6573;57.696;11.950;2023-07-09T14:27:30;3.20;;;2.17;;
13014;SDS011;6573;57.696;11.950;2023-07-09T14:29:58;5.20;;;2.47;;
13014;SDS011;6573;57.696;11.950;2023-07-09T14:32:31;3.10;;;2.30;;
13014;SDS011;6573;57.696;11.950;2023-07-09T14:35:09;2.30;;;1.93;;
13014;SDS011;6573;57.696;11.950;2023-07-09T14:37:39;4.10;;;2.27;;
13014;SDS011;6573;57.696;11.950;2023-07-09T14:40:09;3.53;;;2.20;;
13014;SDS011;6573;57.696;11.950;2023-07-09T14:42:38;4.90;;;2.60;;
13014;SDS011;6573;57.696;11.950;2023-07-09T14:45:17;3.60;;;2.13;;
13014;SDS011;6573;57.696;11.950;2023-07-09T14:47:48;2.27;;;2.07;;
13014;SDS011;6573;57.696;11.950;2023-07-09T14:50:21;4.17;;;2.33;;
13014;SDS011;6573;57.696;11.950;2023-07-09T14:52:51;3.07;;;2.70;;
13014;SDS011;6573;57.696;11.950;2023-07-09T14:55:20;2.60;;;1.93;;
13014;SDS011;6573;57.696;11.950;2023-07-09T14:57:51;2.60;;;2.17;;
13014;SDS011;6573;57.696;11.950;2023-07-09T15:00:20;3.97;;;2.20;;
13014;SDS011;6573;57.696;11.950;2023-07-09T15:02:50;2.50;;;2.07;;
13014;SDS011;6573;57.696;11.950;2023-07-09T15:05:22;4.47;;;2.30;;
13014;SDS011;6573;57.696;11.950;2023-07-09T15:07:51;5.07;;;2.27;;
13014;SDS011;6573;57.696;11.950;2023-07-09T15:10:21;3.10;;;2.30;;
13014;SDS011;6573;57.696;11.950;2023-07-09T15:12:51;2.73;;;2.50;;
13014;SDS011;6573;57.696;11.950;2023-07-09T15:15:21;5.07;;;2.30;;
13014;SDS011;6573;57.696;11.950;2023-07-09T15:17:54;3.40;;;2.50;;